sensor_id;sensor_type;location;lat;lon;timestamp;P1;durP1;ratioP1;P2;durP2;ratioP2
64894;SDS011;51588;53.702;10.208;2023-04-01T00:01:45;1.83;;;1.40;;
64894;SDS011;51588;53.702;10.208;2023-04-01T00:04:12;1.63;;;1.53;;
64894;SDS011;51588;53.702;10.208;2023-04-01T00:06:39;1.80;;;1.50;;
64894;SDS011;51588;53.702;10.208;2023-04-01T00:09:05;2.07;;;1.57;;
64894;SDS011;51588;53.702;10.208;2023-04-01T00:11:32;1.90;;;1.60;;
64894;SDS011;51588;53.702;10.208;2023-04-01T00:13:59;2.03;;;1.60;;
64894;SDS011;51588;53.702;10.208;2023-04-01T00:16:25;1.97;;;1.60;;
64894;SDS011;51588;53.702;10.208;2023-04-01T00:18:53;1.70;;;1.60;;
64894;SDS011;51588;53.702;10.208;2023-04-01T00:21:20;1.97;;;1.60;;
64894;SDS011;51588;53.702;10.208;2023-04-01T00:23:47;2.20;;;1.50;;
64894;SDS011;51588;53.702;10.208;2023-04-01T00:26:14;1.80;;;1.47;;
64894;SDS011;51588;53.702;10.208;2023-04-01T00:28:44;1.77;;;1.47;;
64894;SDS011;51588;53.702;10.208;2023-04-01T00:31:11;1.97;;;1.80;;
64894;SDS011;51588;53.702;10.208;2023-04-01T00:33:38;1.80;;;1.50;;
64894;SDS011;51588;53.702;10.208;2023-04-01T00:36:08;2.07;;;1.40;;
64894;SDS011;51588;53.702;10.208;2023-04-01T00:38:36;2.60;;;1.80;;
64894;SDS011;51588;53.702;10.208;2023-04-01T00:41:03;1.47;;;1.37;;
64894;SDS011;51588;53.702;10.208;2023-04-01T00:43:31;2.70;;;1.70;;
64894;SDS011;51588;53.702;10.208;2023-04-01T00:45:57;2.07;;;1.60;;
64894;SDS011;51588;53.702;10.208;2023-04-01T00:48:25;1.77;;;1.53;;
64894;SDS011;51588;53.702;10.208;2023-04-01T00:50:56;2.20;;;2.00;;
64894;SDS011;51588;53.702;10.208;2023-04-01T00:53:28;2.10;;;1.33;;
64894;SDS011;51588;53.702;10.208;2023-04-01T00:55:57;1.47;;;1.37;;
64894;SDS011;51588;53.702;10.208;2023-04-01T00:58:26;2.50;;;1.80;;
64894;SDS011;51588;53.702;10.208;2023-04-01T01:00:55;1.70;;;1.60;;
64894;SDS011;51588;53.702;10.208;2023-04-01T01:03:24;1.97;;;1.40;;
64894;SDS011;51588;53.702;10.208;2023-04-01T01:08:56;2.67;;;1.90;;
64894;SDS011;51588;53.702;10.208;2023-04-01T01:11:35;1.90;;;1.60;;
64894;SDS011;51588;53.702;10.208;2023-04-01T01:14:08;2.07;;;1.67;;
64894;SDS011;51588;53.702;10.208;2023-04-01T01:16:46;2.30;;;1.30;;
64894;SDS011;51588;53.702;10.208;2023-04-01T01:19:25;1.90;;;1.50;;
64894;SDS011;51588;53.702;10.208;2023-04-01T01:22:26;2.90;;;1.77;;
64894;SDS011;51588;53.702;10.208;2023-04-01T01:25:14;2.60;;;1.43;;
64894;SDS011;51588;53.702;10.208;2023-04-01T01:27:54;2.80;;;1.60;;
64894;SDS011;51588;53.702;10.208;2023-04-01T01:30:37;1.87;;;1.30;;
64894;SDS011;51588;53.702;10.208;2023-04-01T01:36:07;2.43;;;1.70;;
64894;SDS011;51588;53.702;10.208;2023-04-01T01:38:38;1.57;;;1.30;;
64894;SDS011;51588;53.702;10.208;2023-04-01T01:41:06;2.40;;;1.67;;
64894;SDS011;51588;53.702;10.208;2023-04-01T01:43:35;2.80;;;1.70;;
64894;SDS011;51588;53.702;10.208;2023-04-01T01:46:06;2.00;;;1.80;;
64894;SDS011;51588;53.702;10.208;2023-04-01T01:48:37;2.53;;;1.80;;
64894;SDS011;51588;53.702;10.208;2023-04-01T01:51:08;1.90;;;1.50;;
64894;SDS011;51588;53.702;10.208;2023-04-01T01:53:35;3.00;;;1.60;;
64894;SDS011;51588;53.702;10.208;2023-04-01T01:56:02;1.83;;;1.63;;
64894;SDS011;51588;53.702;10.208;2023-04-01T01:58:30;2.20;;;1.40;;
64894;SDS011;51588;53.702;10.208;2023-04-01T02:01:06;1.77;;;1.47;;
64894;SDS011;51588;53.702;10.208;2023-04-01T02:03:35;2.90;;;1.60;;
64894;SDS011;51588;53.702;10.208;2023-04-01T02:06:05;2.03;;;1.53;;
64894;SDS011;51588;53.702;10.208;2023-04-01T02:08:37;2.10;;;1.63;;
64894;SDS011;51588;53.702;10.208;2023-04-01T02:11:07;2.80;;;1.50;;
64894;SDS011;51588;53.702;10.208;2023-04-01T02:13:37;2.07;;;1.50;;
64894;SDS011;51588;53.702;10.208;2023-04-01T02:16:11;1.90;;;1.70;;
64894;SDS011;51588;53.702;10.208;2023-04-01T02:18:42;1.70;;;1.50;;
64894;SDS011;51588;53.702;10.208;2023-04-01T02:21:13;1.73;;;1.63;;
64894;SDS011;51588;53.702;10.208;2023-04-01T02:23:41;2.70;;;1.70;;
64894;SDS011;51588;53.702;10.208;2023-04-01T02:26:08;1.53;;;1.43;;
64894;SDS011;51588;53.702;10.208;2023-04-01T02:28:38;1.60;;;1.40;;
64894;SDS011;51588;53.702;10.208;2023-04-01T02:31:07;1.67;;;1.57;;
64894;SDS011;51588;53.702;10.208;2023-04-01T02:33:36;2.13;;;1.40;;
64894;SDS011;51588;53.702;10.208;2023-04-01T02:36:04;1.87;;;1.60;;
64894;SDS011;51588;53.702;10.208;2023-04-01T02:38:33;1.60;;;1.50;;
64894;SDS011;51588;53.702;10.208;2023-04-01T02:41:02;1.80;;;1.60;;
64894;SDS011;51588;53.702;10.208;2023-04-01T02:43:30;1.40;;;1.20;;
64894;SDS011;51588;53.702;10.208;2023-04-01T02:45:56;4.53;;;1.90;;
64894;SDS011;51588;53.702;10.208;2023-04-01T02:48:23;1.50;;;1.40;;
64894;SDS011;51588;53.702;10.208;2023-04-01T02:50:50;1.70;;;1.53;;
64894;SDS011;51588;53.702;10.208;2023-04-01T02:53:16;1.93;;;1.70;;
64894;SDS011;51588;53.702;10.208;2023-04-01T02:55:45;1.60;;;1.50;;
64894;SDS011;51588;53.702;10.208;2023-04-01T02:58:11;2.20;;;1.70;;
64894;SDS011;51588;53.702;10.208;2023-04-01T03:00:38;2.03;;;1.60;;
64894;SDS011;51588;53.702;10.208;2023-04-01T03:03:04;1.60;;;1.50;;
64894;SDS011;51588;53.702;10.208;2023-04-01T03:05:31;1.80;;;1.70;;
64894;SDS011;51588;53.702;10.208;2023-04-01T03:07:58;2.23;;;1.70;;
64894;SDS011;51588;53.702;10.208;2023-04-01T03:10:24;1.83;;;1.67;;
64894;SDS011;51588;53.702;10.208;2023-04-01T03:12:52;2.03;;;1.60;;
64894;SDS011;51588;53.702;10.208;2023-04-01T03:15:19;2.00;;;1.80;;
64894;SDS011;51588;53.702;10.208;2023-04-01T03:17:46;2.00;;;1.80;;
64894;SDS011;51588;53.702;10.208;2023-04-01T03:20:12;1.97;;;1.60;;
64894;SDS011;51588;53.702;10.208;2023-04-01T03:22:40;2.03;;;1.80;;
64894;SDS011;51588;53.702;10.208;2023-04-01T03:25:06;2.37;;;1.60;;
64894;SDS011;51588;53.702;10.208;2023-04-01T03:27:34;2.57;;;1.80;;
64894;SDS011;51588;53.702;10.208;2023-04-01T03:30:02;1.73;;;1.60;;
64894;SDS011;51588;53.702;10.208;2023-04-01T03:32:30;2.20;;;1.73;;
64894;SDS011;51588;53.702;10.208;2023-04-01T03:34:56;3.27;;;1.77;;
64894;SDS011;51588;53.702;10.208;2023-04-01T03:37:23;1.90;;;1.70;;
64894;SDS011;51588;53.702;10.208;2023-04-01T03:39:50;2.10;;;1.70;;
64894;SDS011;51588;53.702;10.208;2023-04-01T03:42:17;1.93;;;1.70;;
64894;SDS011;51588;53.702;10.208;2023-04-01T03:44:43;2.07;;;1.80;;
64894;SDS011;51588;53.702;10.208;2023-04-01T03:47:11;2.13;;;1.67;;
64894;SDS011;51588;53.702;10.208;2023-04-01T03:49:38;1.90;;;1.80;;
64894;SDS011;51588;53.702;10.208;2023-04-01T03:52:07;2.80;;;1.77;;
64894;SDS011;51588;53.702;10.208;2023-04-01T03:54:35;2.33;;;2.10;;
64894;SDS011;51588;53.702;10.208;2023-04-01T03:57:02;2.07;;;1.70;;
64894;SDS011;51588;53.702;10.208;2023-04-01T03:59:28;2.10;;;1.90;;
64894;SDS011;51588;53.702;10.208;2023-04-01T04:01:55;2.10;;;1.80;;
64894;SDS011;51588;53.702;10.208;2023-04-01T04:04:23;2.97;;;1.90;;
64894;SDS011;51588;53.702;10.208;2023-04-01T04:06:51;2.43;;;2.20;;
64894;SDS011;51588;53.702;10.208;2023-04-01T04:09:17;2.10;;;1.90;;
64894;SDS011;51588;53.702;10.208;2023-04-01T04:11:44;1.93;;;1.73;;
64894;SDS011;51588;53.702;10.208;2023-04-01T04:14:10;2.47;;;1.60;;
64894;SDS011;51588;53.702;10.208;2023-04-01T04:16:37;1.60;;;1.50;;
64894;SDS011;51588;53.702;10.208;2023-04-01T04:19:04;1.70;;;1.60;;
64894;SDS011;51588;53.702;10.208;2023-04-01T04:21:32;1.80;;;1.70;;
64894;SDS011;51588;53.702;10.208;2023-04-01T04:23:59;2.30;;;1.67;;
64894;SDS011;51588;53.702;10.208;2023-04-01T04:26:26;1.93;;;1.30;;
64894;SDS011;51588;53.702;10.208;2023-04-01T04:28:53;1.57;;;1.30;;
64894;SDS011;51588;53.702;10.208;2023-04-01T04:31:20;2.47;;;1.50;;
64894;SDS011;51588;53.702;10.208;2023-04-01T04:33:48;1.50;;;1.40;;
64894;SDS011;51588;53.702;10.208;2023-04-01T04:36:15;1.40;;;1.30;;
64894;SDS011;51588;53.702;10.208;2023-04-01T04:38:43;1.70;;;1.30;;
64894;SDS011;51588;53.702;10.208;2023-04-01T04:41:10;1.57;;;1.47;;
64894;SDS011;51588;53.702;10.208;2023-04-01T04:43:37;1.73;;;1.17;;
64894;SDS011;51588;53.702;10.208;2023-04-01T04:46:05;1.40;;;1.20;;
64894;SDS011;51588;53.702;10.208;2023-04-01T04:48:32;1.47;;;1.30;;
64894;SDS011;51588;53.702;10.208;2023-04-01T04:50:58;1.67;;;1.57;;
64894;SDS011;51588;53.702;10.208;2023-04-01T04:53:25;1.20;;;1.10;;
64894;SDS011;51588;53.702;10.208;2023-04-01T04:55:53;1.10;;;1.00;;
64894;SDS011;51588;53.702;10.208;2023-04-01T04:58:20;1.83;;;1.20;;
64894;SDS011;51588;53.702;10.208;2023-04-01T05:00:47;1.27;;;1.17;;
64894;SDS011;51588;53.702;10.208;2023-04-01T05:03:13;1.20;;;1.10;;
64894;SDS011;51588;53.702;10.208;2023-04-01T05:05:47;1.23;;;1.10;;
64894;SDS011;51588;53.702;10.208;2023-04-01T05:08:15;2.07;;;1.20;;
64894;SDS011;51588;53.702;10.208;2023-04-01T05:10:41;2.63;;;1.20;;
64894;SDS011;51588;53.702;10.208;2023-04-01T05:13:09;5.03;;;1.60;;
64894;SDS011;51588;53.702;10.208;2023-04-01T05:15:36;2.60;;;1.47;;
64894;SDS011;51588;53.702;10.208;2023-04-01T05:18:03;2.53;;;1.40;;
64894;SDS011;51588;53.702;10.208;2023-04-01T05:20:30;2.47;;;1.33;;
64894;SDS011;51588;53.702;10.208;2023-04-01T05:22:56;5.40;;;1.37;;
64894;SDS011;51588;53.702;10.208;2023-04-01T05:25:23;3.50;;;1.60;;
64894;SDS011;51588;53.702;10.208;2023-04-01T05:27:51;3.87;;;1.77;;
64894;SDS011;51588;53.702;10.208;2023-04-01T05:30:19;6.60;;;1.90;;
64894;SDS011;51588;53.702;10.208;2023-04-01T05:32:47;6.80;;;2.17;;
64894;SDS011;51588;53.702;10.208;2023-04-01T05:35:13;9.50;;;1.80;;
64894;SDS011;51588;53.702;10.208;2023-04-01T05:37:40;3.60;;;1.50;;
64894;SDS011;51588;53.702;10.208;2023-04-01T05:40:07;6.87;;;1.90;;
64894;SDS011;51588;53.702;10.208;2023-04-01T05:42:35;9.23;;;1.80;;
64894;SDS011;51588;53.702;10.208;2023-04-01T05:45:01;5.23;;;1.60;;
64894;SDS011;51588;53.702;10.208;2023-04-01T05:47:29;5.13;;;1.40;;
64894;SDS011;51588;53.702;10.208;2023-04-01T05:49:56;7.27;;;1.30;;
64894;SDS011;51588;53.702;10.208;2023-04-01T05:52:23;7.03;;;1.50;;
64894;SDS011;51588;53.702;10.208;2023-04-01T05:54:49;6.83;;;1.50;;
64894;SDS011;51588;53.702;10.208;2023-04-01T05:57:16;1.27;;;1.10;;
64894;SDS011;51588;53.702;10.208;2023-04-01T05:59:43;3.73;;;1.00;;
64894;SDS011;51588;53.702;10.208;2023-04-01T06:02:11;1.60;;;1.20;;
64894;SDS011;51588;53.702;10.208;2023-04-01T06:04:45;4.33;;;1.20;;
64894;SDS011;51588;53.702;10.208;2023-04-01T06:07:12;1.13;;;1.00;;
64894;SDS011;51588;53.702;10.208;2023-04-01T06:09:39;3.10;;;1.03;;
64894;SDS011;51588;53.702;10.208;2023-04-01T06:12:14;1.50;;;1.10;;
64894;SDS011;51588;53.702;10.208;2023-04-01T06:15:08;5.30;;;1.20;;
64894;SDS011;51588;53.702;10.208;2023-04-01T06:17:49;2.13;;;1.30;;
64894;SDS011;51588;53.702;10.208;2023-04-01T06:20:32;1.20;;;1.00;;
64894;SDS011;51588;53.702;10.208;2023-04-01T06:23:15;1.50;;;1.00;;
64894;SDS011;51588;53.702;10.208;2023-04-01T06:25:58;3.10;;;1.00;;
64894;SDS011;51588;53.702;10.208;2023-04-01T06:28:55;1.53;;;1.17;;
64894;SDS011;51588;53.702;10.208;2023-04-01T06:31:43;1.70;;;0.97;;
64894;SDS011;51588;53.702;10.208;2023-04-01T06:34:28;1.33;;;1.03;;
64894;SDS011;51588;53.702;10.208;2023-04-01T06:37:10;1.10;;;1.00;;
64894;SDS011;51588;53.702;10.208;2023-04-01T06:39:56;3.43;;;1.00;;
64894;SDS011;51588;53.702;10.208;2023-04-01T06:42:39;1.93;;;1.00;;
64894;SDS011;51588;53.702;10.208;2023-04-01T06:45:26;2.07;;;1.20;;
64894;SDS011;51588;53.702;10.208;2023-04-01T06:48:02;1.80;;;1.03;;
64894;SDS011;51588;53.702;10.208;2023-04-01T06:50:43;2.03;;;1.20;;
64894;SDS011;51588;53.702;10.208;2023-04-01T06:53:18;2.20;;;1.40;;
64894;SDS011;51588;53.702;10.208;2023-04-01T06:55:51;1.10;;;0.97;;
64894;SDS011;51588;53.702;10.208;2023-04-01T06:58:24;1.50;;;1.10;;
64894;SDS011;51588;53.702;10.208;2023-04-01T07:00:53;1.10;;;0.90;;
64894;SDS011;51588;53.702;10.208;2023-04-01T07:03:26;1.83;;;1.00;;
64894;SDS011;51588;53.702;10.208;2023-04-01T07:06:00;1.40;;;1.00;;
64894;SDS011;51588;53.702;10.208;2023-04-01T07:08:31;2.60;;;1.10;;
64894;SDS011;51588;53.702;10.208;2023-04-01T07:11:03;2.50;;;1.00;;
64894;SDS011;51588;53.702;10.208;2023-04-01T07:13:31;1.47;;;1.03;;
64894;SDS011;51588;53.702;10.208;2023-04-01T07:16:07;1.20;;;1.10;;
64894;SDS011;51588;53.702;10.208;2023-04-01T07:18:40;4.83;;;1.00;;
64894;SDS011;51588;53.702;10.208;2023-04-01T07:21:20;1.10;;;0.90;;
64894;SDS011;51588;53.702;10.208;2023-04-01T07:23:52;1.10;;;1.00;;
64894;SDS011;51588;53.702;10.208;2023-04-01T07:26:23;1.10;;;0.80;;
64894;SDS011;51588;53.702;10.208;2023-04-01T07:28:52;1.50;;;1.10;;
64894;SDS011;51588;53.702;10.208;2023-04-01T07:31:22;1.57;;;1.00;;
64894;SDS011;51588;53.702;10.208;2023-04-01T07:34:00;2.17;;;1.10;;
64894;SDS011;51588;53.702;10.208;2023-04-01T07:36:32;1.33;;;1.00;;
64894;SDS011;51588;53.702;10.208;2023-04-01T07:39:08;1.50;;;1.00;;
64894;SDS011;51588;53.702;10.208;2023-04-01T07:41:49;1.53;;;0.90;;
64894;SDS011;51588;53.702;10.208;2023-04-01T07:44:25;1.40;;;1.00;;
64894;SDS011;51588;53.702;10.208;2023-04-01T07:47:08;0.97;;;0.87;;
64894;SDS011;51588;53.702;10.208;2023-04-01T07:49:47;0.90;;;0.80;;
64894;SDS011;51588;53.702;10.208;2023-04-01T07:52:27;1.67;;;1.00;;
64894;SDS011;51588;53.702;10.208;2023-04-01T07:55:04;1.00;;;0.87;;
64894;SDS011;51588;53.702;10.208;2023-04-01T07:57:37;0.93;;;0.83;;
64894;SDS011;51588;53.702;10.208;2023-04-01T08:00:12;1.10;;;0.80;;
64894;SDS011;51588;53.702;10.208;2023-04-01T08:02:57;1.37;;;0.80;;
64894;SDS011;51588;53.702;10.208;2023-04-01T08:05:49;1.40;;;0.90;;
64894;SDS011;51588;53.702;10.208;2023-04-01T08:08:24;2.30;;;0.90;;
64894;SDS011;51588;53.702;10.208;2023-04-01T08:11:04;1.90;;;0.80;;
64894;SDS011;51588;53.702;10.208;2023-04-01T08:13:43;1.30;;;0.73;;
64894;SDS011;51588;53.702;10.208;2023-04-01T08:16:18;1.00;;;0.90;;
64894;SDS011;51588;53.702;10.208;2023-04-01T08:18:52;2.90;;;0.80;;
64894;SDS011;51588;53.702;10.208;2023-04-01T08:21:27;1.40;;;1.00;;
64894;SDS011;51588;53.702;10.208;2023-04-01T08:23:59;1.00;;;0.90;;
64894;SDS011;51588;53.702;10.208;2023-04-01T08:26:34;1.00;;;0.90;;
64894;SDS011;51588;53.702;10.208;2023-04-01T08:29:06;1.10;;;1.00;;
64894;SDS011;51588;53.702;10.208;2023-04-01T08:31:39;1.23;;;0.90;;
64894;SDS011;51588;53.702;10.208;2023-04-01T08:34:10;0.80;;;0.70;;
64894;SDS011;51588;53.702;10.208;2023-04-01T08:36:43;1.83;;;0.90;;
64894;SDS011;51588;53.702;10.208;2023-04-01T08:39:15;1.00;;;0.90;;
64894;SDS011;51588;53.702;10.208;2023-04-01T08:44:59;1.13;;;0.90;;
64894;SDS011;51588;53.702;10.208;2023-04-01T08:47:50;1.00;;;0.90;;
64894;SDS011;51588;53.702;10.208;2023-04-01T08:50:41;1.13;;;0.90;;
64894;SDS011;51588;53.702;10.208;2023-04-01T08:53:41;0.80;;;0.80;;
64894;SDS011;51588;53.702;10.208;2023-04-01T08:56:26;1.23;;;0.90;;
64894;SDS011;51588;53.702;10.208;2023-04-01T08:59:01;1.10;;;0.80;;
64894;SDS011;51588;53.702;10.208;2023-04-01T09:01:51;1.30;;;0.90;;
64894;SDS011;51588;53.702;10.208;2023-04-01T09:04:50;1.00;;;0.90;;
64894;SDS011;51588;53.702;10.208;2023-04-01T09:07:35;1.00;;;0.90;;
64894;SDS011;51588;53.702;10.208;2023-04-01T09:10:24;1.00;;;0.80;;
64894;SDS011;51588;53.702;10.208;2023-04-01T09:19:14;2.13;;;0.90;;
64894;SDS011;51588;53.702;10.208;2023-04-01T09:24:47;4.50;;;1.00;;
64894;SDS011;51588;53.702;10.208;2023-04-01T09:27:37;1.63;;;1.10;;
64894;SDS011;51588;53.702;10.208;2023-04-01T09:30:19;5.00;;;1.00;;
64894;SDS011;51588;53.702;10.208;2023-04-01T09:36:21;6.73;;;1.77;;
64894;SDS011;51588;53.702;10.208;2023-04-01T09:39:04;5.40;;;1.83;;
64894;SDS011;51588;53.702;10.208;2023-04-01T09:41:52;7.27;;;1.60;;
64894;SDS011;51588;53.702;10.208;2023-04-01T09:44:43;6.53;;;1.77;;
64894;SDS011;51588;53.702;10.208;2023-04-01T09:47:16;12.67;;;2.03;;
64894;SDS011;51588;53.702;10.208;2023-04-01T09:50:14;8.17;;;1.73;;
64894;SDS011;51588;53.702;10.208;2023-04-01T09:53:09;8.10;;;1.40;;
64894;SDS011;51588;53.702;10.208;2023-04-01T09:55:52;5.20;;;1.50;;
64894;SDS011;51588;53.702;10.208;2023-04-01T10:01:45;7.40;;;1.80;;
64894;SDS011;51588;53.702;10.208;2023-04-01T10:07:53;9.53;;;1.40;;
64894;SDS011;51588;53.702;10.208;2023-04-01T10:20:29;2.53;;;1.00;;
64894;SDS011;51588;53.702;10.208;2023-04-01T10:26:32;2.97;;;1.23;;
64894;SDS011;51588;53.702;10.208;2023-04-01T10:29:26;4.60;;;1.13;;
64894;SDS011;51588;53.702;10.208;2023-04-01T10:32:10;3.33;;;1.10;;
64894;SDS011;51588;53.702;10.208;2023-04-01T10:47:39;5.90;;;1.40;;
64894;SDS011;51588;53.702;10.208;2023-04-01T10:50:47;4.80;;;1.20;;
64894;SDS011;51588;53.702;10.208;2023-04-01T10:53:31;7.27;;;1.30;;
64894;SDS011;51588;53.702;10.208;2023-04-01T11:05:27;6.20;;;2.13;;
64894;SDS011;51588;53.702;10.208;2023-04-01T11:08:28;2.60;;;1.87;;
64894;SDS011;51588;53.702;10.208;2023-04-01T11:14:35;3.73;;;1.83;;
64894;SDS011;51588;53.702;10.208;2023-04-01T11:17:27;3.97;;;1.60;;
64894;SDS011;51588;53.702;10.208;2023-04-01T11:23:31;4.27;;;1.60;;
64894;SDS011;51588;53.702;10.208;2023-04-01T11:26:09;5.00;;;1.40;;
64894;SDS011;51588;53.702;10.208;2023-04-01T11:28:53;2.67;;;1.30;;
64894;SDS011;51588;53.702;10.208;2023-04-01T11:31:38;3.30;;;1.40;;
64894;SDS011;51588;53.702;10.208;2023-04-01T11:34:16;5.33;;;1.47;;
64894;SDS011;51588;53.702;10.208;2023-04-01T11:37:01;2.03;;;1.33;;
64894;SDS011;51588;53.702;10.208;2023-04-01T11:39:37;1.97;;;1.27;;
64894;SDS011;51588;53.702;10.208;2023-04-01T11:42:14;1.87;;;1.30;;
64894;SDS011;51588;53.702;10.208;2023-04-01T11:44:51;3.30;;;1.30;;
64894;SDS011;51588;53.702;10.208;2023-04-01T11:47:40;3.43;;;1.47;;
64894;SDS011;51588;53.702;10.208;2023-04-01T11:50:23;8.03;;;1.50;;
64894;SDS011;51588;53.702;10.208;2023-04-01T11:53:04;2.70;;;1.37;;
64894;SDS011;51588;53.702;10.208;2023-04-01T11:55:58;3.10;;;1.33;;
64894;SDS011;51588;53.702;10.208;2023-04-01T11:58:48;1.70;;;1.40;;
64894;SDS011;51588;53.702;10.208;2023-04-01T12:01:30;1.70;;;1.33;;
64894;SDS011;51588;53.702;10.208;2023-04-01T12:04:11;5.43;;;1.80;;
64894;SDS011;51588;53.702;10.208;2023-04-01T12:06:55;2.43;;;1.57;;
64894;SDS011;51588;53.702;10.208;2023-04-01T12:09:33;1.90;;;1.30;;
64894;SDS011;51588;53.702;10.208;2023-04-01T12:12:13;5.17;;;1.97;;
64894;SDS011;51588;53.702;10.208;2023-04-01T12:14:49;6.30;;;2.53;;
64894;SDS011;51588;53.702;10.208;2023-04-01T12:17:28;7.70;;;2.93;;
64894;SDS011;51588;53.702;10.208;2023-04-01T12:20:11;9.87;;;3.07;;
64894;SDS011;51588;53.702;10.208;2023-04-01T12:22:53;7.77;;;2.73;;
64894;SDS011;51588;53.702;10.208;2023-04-01T12:25:35;8.17;;;3.10;;
64894;SDS011;51588;53.702;10.208;2023-04-01T12:28:18;4.80;;;2.50;;
64894;SDS011;51588;53.702;10.208;2023-04-01T12:30:58;8.10;;;3.10;;
64894;SDS011;51588;53.702;10.208;2023-04-01T12:33:49;6.97;;;2.63;;
64894;SDS011;51588;53.702;10.208;2023-04-01T12:36:30;7.73;;;3.13;;
64894;SDS011;51588;53.702;10.208;2023-04-01T12:42:01;7.90;;;3.13;;
64894;SDS011;51588;53.702;10.208;2023-04-01T12:44:42;7.03;;;3.10;;
64894;SDS011;51588;53.702;10.208;2023-04-01T12:47:29;7.33;;;3.07;;
64894;SDS011;51588;53.702;10.208;2023-04-01T12:50:19;7.20;;;2.90;;
64894;SDS011;51588;53.702;10.208;2023-04-01T12:53:07;10.00;;;3.17;;
64894;SDS011;51588;53.702;10.208;2023-04-01T12:55:47;6.07;;;3.03;;
64894;SDS011;51588;53.702;10.208;2023-04-01T12:58:25;13.80;;;3.17;;
64894;SDS011;51588;53.702;10.208;2023-04-01T13:07:37;7.87;;;3.00;;
64894;SDS011;51588;53.702;10.208;2023-04-01T13:10:20;6.80;;;3.00;;
64894;SDS011;51588;53.702;10.208;2023-04-01T13:13:16;10.67;;;2.83;;
64894;SDS011;51588;53.702;10.208;2023-04-01T13:15:58;6.03;;;2.83;;
64894;SDS011;51588;53.702;10.208;2023-04-01T13:18:32;4.53;;;2.60;;
64894;SDS011;51588;53.702;10.208;2023-04-01T13:21:14;7.37;;;3.50;;
64894;SDS011;51588;53.702;10.208;2023-04-01T13:23:50;6.27;;;2.67;;
64894;SDS011;51588;53.702;10.208;2023-04-01T13:26:28;4.60;;;2.47;;
64894;SDS011;51588;53.702;10.208;2023-04-01T13:29:04;4.50;;;2.40;;
64894;SDS011;51588;53.702;10.208;2023-04-01T13:31:44;4.20;;;2.60;;
64894;SDS011;51588;53.702;10.208;2023-04-01T13:34:34;6.77;;;2.37;;
64894;SDS011;51588;53.702;10.208;2023-04-01T13:37:13;7.50;;;2.63;;
64894;SDS011;51588;53.702;10.208;2023-04-01T13:39:54;5.97;;;2.67;;
64894;SDS011;51588;53.702;10.208;2023-04-01T13:42:37;8.83;;;2.60;;
64894;SDS011;51588;53.702;10.208;2023-04-01T13:45:15;5.37;;;2.27;;
64894;SDS011;51588;53.702;10.208;2023-04-01T13:48:08;8.07;;;2.60;;
64894;SDS011;51588;53.702;10.208;2023-04-01T13:50:55;4.70;;;2.33;;
64894;SDS011;51588;53.702;10.208;2023-04-01T13:54:10;4.73;;;2.60;;
64894;SDS011;51588;53.702;10.208;2023-04-01T13:56:53;6.40;;;2.70;;
64894;SDS011;51588;53.702;10.208;2023-04-01T13:59:39;6.33;;;2.53;;
64894;SDS011;51588;53.702;10.208;2023-04-01T14:02:19;8.00;;;1.90;;
64894;SDS011;51588;53.702;10.208;2023-04-01T14:05:15;5.23;;;2.30;;
64894;SDS011;51588;53.702;10.208;2023-04-01T14:07:56;5.10;;;2.27;;
64894;SDS011;51588;53.702;10.208;2023-04-01T14:10:34;3.87;;;2.07;;
64894;SDS011;51588;53.702;10.208;2023-04-01T14:13:07;8.47;;;2.70;;
64894;SDS011;51588;53.702;10.208;2023-04-01T14:15:41;4.80;;;2.30;;
64894;SDS011;51588;53.702;10.208;2023-04-01T14:21:17;3.33;;;2.20;;
64894;SDS011;51588;53.702;10.208;2023-04-01T14:27:06;5.10;;;2.20;;
64894;SDS011;51588;53.702;10.208;2023-04-01T14:29:47;5.00;;;2.20;;
64894;SDS011;51588;53.702;10.208;2023-04-01T14:32:27;3.87;;;2.47;;
64894;SDS011;51588;53.702;10.208;2023-04-01T14:35:10;2.90;;;2.03;;
64894;SDS011;51588;53.702;10.208;2023-04-01T14:37:54;3.30;;;2.10;;
64894;SDS011;51588;53.702;10.208;2023-04-01T14:40:28;3.93;;;2.00;;
64894;SDS011;51588;53.702;10.208;2023-04-01T14:43:08;5.07;;;2.20;;
64894;SDS011;51588;53.702;10.208;2023-04-01T14:46:06;3.20;;;2.20;;
64894;SDS011;51588;53.702;10.208;2023-04-01T14:48:48;5.53;;;2.23;;
64894;SDS011;51588;53.702;10.208;2023-04-01T14:51:20;3.23;;;2.00;;
64894;SDS011;51588;53.702;10.208;2023-04-01T14:53:59;4.00;;;2.07;;
64894;SDS011;51588;53.702;10.208;2023-04-01T14:56:38;2.70;;;2.00;;
64894;SDS011;51588;53.702;10.208;2023-04-01T14:59:07;5.10;;;2.13;;
64894;SDS011;51588;53.702;10.208;2023-04-01T15:01:37;3.87;;;2.27;;
64894;SDS011;51588;53.702;10.208;2023-04-01T15:04:15;4.00;;;2.10;;
64894;SDS011;51588;53.702;10.208;2023-04-01T15:07:00;5.00;;;2.00;;
64894;SDS011;51588;53.702;10.208;2023-04-01T15:09:35;6.07;;;2.00;;
64894;SDS011;51588;53.702;10.208;2023-04-01T15:12:13;2.97;;;1.90;;
64894;SDS011;51588;53.702;10.208;2023-04-01T15:14:58;3.03;;;2.23;;
64894;SDS011;51588;53.702;10.208;2023-04-01T15:17:47;2.00;;;1.53;;
64894;SDS011;51588;53.702;10.208;2023-04-01T15:20:34;2.30;;;1.57;;
64894;SDS011;51588;53.702;10.208;2023-04-01T15:23:18;2.23;;;1.93;;
64894;SDS011;51588;53.702;10.208;2023-04-01T15:26:01;2.53;;;2.13;;
64894;SDS011;51588;53.702;10.208;2023-04-01T15:29:01;3.83;;;2.20;;
64894;SDS011;51588;53.702;10.208;2023-04-01T15:31:44;4.20;;;2.20;;
64894;SDS011;51588;53.702;10.208;2023-04-01T15:34:17;3.60;;;2.07;;
64894;SDS011;51588;53.702;10.208;2023-04-01T15:36:53;3.03;;;2.20;;
64894;SDS011;51588;53.702;10.208;2023-04-01T15:39:29;1.93;;;1.70;;
64894;SDS011;51588;53.702;10.208;2023-04-01T15:42:19;3.33;;;2.07;;
64894;SDS011;51588;53.702;10.208;2023-04-01T15:45:08;2.60;;;2.07;;
64894;SDS011;51588;53.702;10.208;2023-04-01T15:47:42;3.40;;;2.20;;
64894;SDS011;51588;53.702;10.208;2023-04-01T15:53:27;2.37;;;1.83;;
64894;SDS011;51588;53.702;10.208;2023-04-01T15:56:10;4.17;;;2.27;;
64894;SDS011;51588;53.702;10.208;2023-04-01T15:58:55;4.47;;;2.17;;
64894;SDS011;51588;53.702;10.208;2023-04-01T16:01:35;8.43;;;2.57;;
64894;SDS011;51588;53.702;10.208;2023-04-01T16:04:21;3.37;;;2.20;;
64894;SDS011;51588;53.702;10.208;2023-04-01T16:07:08;3.73;;;2.03;;
64894;SDS011;51588;53.702;10.208;2023-04-01T16:09:46;2.53;;;2.20;;
64894;SDS011;51588;53.702;10.208;2023-04-01T16:12:29;3.50;;;2.33;;
64894;SDS011;51588;53.702;10.208;2023-04-01T16:15:17;5.47;;;2.30;;
64894;SDS011;51588;53.702;10.208;2023-04-01T16:18:05;4.40;;;2.30;;
64894;SDS011;51588;53.702;10.208;2023-04-01T16:20:49;4.57;;;2.00;;
64894;SDS011;51588;53.702;10.208;2023-04-01T16:23:22;4.17;;;2.10;;
64894;SDS011;51588;53.702;10.208;2023-04-01T16:25:55;7.97;;;2.50;;
64894;SDS011;51588;53.702;10.208;2023-04-01T16:28:32;3.33;;;2.50;;
64894;SDS011;51588;53.702;10.208;2023-04-01T16:31:06;6.03;;;2.83;;
64894;SDS011;51588;53.702;10.208;2023-04-01T16:33:43;6.90;;;2.57;;
64894;SDS011;51588;53.702;10.208;2023-04-01T16:36:20;6.53;;;2.90;;
64894;SDS011;51588;53.702;10.208;2023-04-01T16:39:06;7.57;;;2.80;;
64894;SDS011;51588;53.702;10.208;2023-04-01T16:41:47;8.93;;;3.30;;
64894;SDS011;51588;53.702;10.208;2023-04-01T16:44:19;7.83;;;3.23;;
64894;SDS011;51588;53.702;10.208;2023-04-01T16:46:49;9.60;;;2.80;;
64894;SDS011;51588;53.702;10.208;2023-04-01T16:49:25;12.87;;;3.20;;
64894;SDS011;51588;53.702;10.208;2023-04-01T16:52:00;10.97;;;3.00;;
64894;SDS011;51588;53.702;10.208;2023-04-01T16:54:40;7.77;;;2.97;;